LOT252 ELLX-EPWA
Flight info
| Callsign | LOT252 |
|---|---|
| Flight time | 1h 34m |
| Altitude | 33000 |
| Route | ASMOX Y891 ROPUV DCT MASEK DCT ROBEL DCT GOVEN DCT OBOKU DCT DOSIX DCT BIMPA |
| Aircraft | B738/M-SDE2E3FGHIRWXY/LB1 |
Departure
| Time | 2026-05-08 06:38 |
|---|---|
| Airport | Luxembourg-Findel International Airport (ELLX) |
Arrival
| Time | 2026-05-08 08:12 |
|---|---|
| Airport | Warsaw Chopin Airport (EPWA) |
| Time | Latitude | Longitude | Altitude | Speed | Heading |
|---|---|---|---|---|---|
| 2026-05-08 06:07 | 49.63368 | 6.21740 | 1229 ft | 0 kts | 330° |
| 2026-05-08 06:29 | 49.63362 | 6.21746 | 1229 ft | 2 kts | 328° |
| 2026-05-08 06:29 | 49.63348 | 6.21759 | 1229 ft | 2 kts | 325° |
| 2026-05-08 06:29 | 49.63335 | 6.21776 | 1229 ft | 2 kts | 311° |
| 2026-05-08 06:30 | 49.63327 | 6.21798 | 1229 ft | 2 kts | 264° |
| 2026-05-08 06:30 | 49.63332 | 6.21818 | 1229 ft | 1 kts | 238° |
| 2026-05-08 06:30 | 49.63333 | 6.21820 | 1229 ft | 0 kts | 238° |
| 2026-05-08 06:32 | 49.63329 | 6.21813 | 1229 ft | 3 kts | 230° |
| 2026-05-08 06:32 | 49.63300 | 6.21811 | 1229 ft | 8 kts | 163° |
| 2026-05-08 06:32 | 49.63227 | 6.21871 | 1227 ft | 17 kts | 150° |
| 2026-05-08 06:33 | 49.63147 | 6.21870 | 1226 ft | 16 kts | 239° |
| 2026-05-08 06:33 | 49.63086 | 6.21676 | 1224 ft | 24 kts | 245° |
| 2026-05-08 06:33 | 49.63011 | 6.21433 | 1227 ft | 25 kts | 244° |
| 2026-05-08 06:33 | 49.62940 | 6.21203 | 1232 ft | 23 kts | 244° |
| 2026-05-08 06:34 | 49.62871 | 6.20984 | 1233 ft | 22 kts | 244° |
| 2026-05-08 06:34 | 49.62807 | 6.20778 | 1238 ft | 22 kts | 235° |
| 2026-05-08 06:34 | 49.62695 | 6.20620 | 1237 ft | 21 kts | 219° |
| 2026-05-08 06:34 | 49.62592 | 6.20454 | 1234 ft | 23 kts | 229° |
| 2026-05-08 06:35 | 49.62488 | 6.20255 | 1225 ft | 25 kts | 237° |
| 2026-05-08 06:35 | 49.62395 | 6.20009 | 1210 ft | 28 kts | 240° |
| 2026-05-08 06:35 | 49.62294 | 6.19736 | 1194 ft | 31 kts | 240° |
| 2026-05-08 06:35 | 49.62196 | 6.19474 | 1177 ft | 29 kts | 240° |
| 2026-05-08 06:36 | 49.62100 | 6.19214 | 1169 ft | 21 kts | 240° |
| 2026-05-08 06:36 | 49.62023 | 6.19007 | 1162 ft | 23 kts | 240° |
| 2026-05-08 06:36 | 49.61932 | 6.18793 | 1156 ft | 24 kts | 223° |
| 2026-05-08 06:36 | 49.61847 | 6.18707 | 1156 ft | 14 kts | 195° |
| 2026-05-08 06:37 | 49.61777 | 6.18779 | 1159 ft | 13 kts | 102° |
| 2026-05-08 06:37 | 49.61821 | 6.18939 | 1162 ft | 34 kts | 60° |
| 2026-05-08 06:37 | 49.62048 | 6.19549 | 1183 ft | 98 kts | 60° |
| 2026-05-08 06:37 | 49.62482 | 6.20718 | 1243 ft | 150 kts | 60° |
| 2026-05-08 06:38 | 49.63057 | 6.22260 | 1473 ft | 175 kts | 59° |
| 2026-05-08 06:38 | 49.63625 | 6.23759 | 2444 ft | 167 kts | 61° |
| 2026-05-08 06:38 | 49.64251 | 6.25417 | 3077 ft | 179 kts | 61° |
| 2026-05-08 06:38 | 49.64925 | 6.27225 | 3370 ft | 207 kts | 61° |
| 2026-05-08 06:39 | 49.65680 | 6.29267 | 3582 ft | 230 kts | 61° |
| 2026-05-08 06:39 | 49.66501 | 6.31498 | 3837 ft | 251 kts | 61° |
| 2026-05-08 06:39 | 49.67386 | 6.33909 | 4373 ft | 263 kts | 61° |
| 2026-05-08 06:39 | 49.68292 | 6.36309 | 5232 ft | 264 kts | 54° |
| 2026-05-08 06:40 | 49.69693 | 6.38159 | 6000 ft | 270 kts | 25° |
| 2026-05-08 06:40 | 49.71525 | 6.38733 | 6756 ft | 274 kts | 356° |
| 2026-05-08 06:40 | 49.73383 | 6.38082 | 7509 ft | 276 kts | 339° |
| 2026-05-08 06:40 | 49.75180 | 6.36994 | 8279 ft | 279 kts | 336° |
| 2026-05-08 06:41 | 49.76989 | 6.35842 | 9036 ft | 283 kts | 336° |
| 2026-05-08 06:41 | 49.78823 | 6.34676 | 9818 ft | 286 kts | 336° |
| 2026-05-08 06:41 | 49.80663 | 6.33521 | 10439 ft | 294 kts | 336° |
| 2026-05-08 06:41 | 49.82638 | 6.32295 | 10626 ft | 318 kts | 336° |
| 2026-05-08 06:42 | 49.84763 | 6.30989 | 10804 ft | 339 kts | 336° |
| 2026-05-08 06:42 | 49.87025 | 6.29602 | 11000 ft | 359 kts | 336° |
| 2026-05-08 06:42 | 49.89461 | 6.28516 | 11412 ft | 372 kts | 354° |
| 2026-05-08 06:42 | 49.92044 | 6.28853 | 12143 ft | 376 kts | 15° |
| 2026-05-08 06:43 | 49.94471 | 6.30391 | 12876 ft | 379 kts | 24° |
| 2026-05-08 06:43 | 49.96861 | 6.32178 | 13508 ft | 384 kts | 25° |
| 2026-05-08 06:43 | 49.99287 | 6.34008 | 14104 ft | 388 kts | 24° |
| 2026-05-08 06:43 | 50.01696 | 6.35785 | 14707 ft | 391 kts | 24° |
| 2026-05-08 06:44 | 50.04171 | 6.37579 | 15317 ft | 394 kts | 23° |
| 2026-05-08 06:44 | 50.06608 | 6.39562 | 15862 ft | 399 kts | 33° |
| 2026-05-08 06:44 | 50.08705 | 6.42421 | 16426 ft | 404 kts | 47° |
| 2026-05-08 06:44 | 50.10309 | 6.46036 | 16993 ft | 408 kts | 62° |
| 2026-05-08 06:45 | 50.11560 | 6.50026 | 17569 ft | 411 kts | 64° |
| 2026-05-08 06:45 | 50.12776 | 6.54079 | 18091 ft | 416 kts | 64° |
| 2026-05-08 06:45 | 50.14005 | 6.58182 | 18589 ft | 420 kts | 64° |
| 2026-05-08 06:45 | 50.15256 | 6.62302 | 19061 ft | 422 kts | 64° |
| 2026-05-08 06:46 | 50.16512 | 6.66394 | 19545 ft | 425 kts | 64° |
| 2026-05-08 06:46 | 50.17799 | 6.70556 | 20023 ft | 427 kts | 63° |
| 2026-05-08 06:46 | 50.19098 | 6.74748 | 20497 ft | 430 kts | 64° |
| 2026-05-08 06:46 | 50.20403 | 6.78964 | 20950 ft | 433 kts | 64° |
| 2026-05-08 06:47 | 50.21715 | 6.83218 | 21393 ft | 436 kts | 64° |
| 2026-05-08 06:47 | 50.22877 | 6.87609 | 21828 ft | 439 kts | 71° |
| 2026-05-08 06:47 | 50.23810 | 6.92166 | 22258 ft | 442 kts | 72° |
| 2026-05-08 06:47 | 50.24694 | 6.96783 | 22678 ft | 445 kts | 73° |
| 2026-05-08 06:48 | 50.25557 | 7.01381 | 23097 ft | 448 kts | 73° |
| 2026-05-08 06:48 | 50.26439 | 7.06063 | 23502 ft | 451 kts | 73° |
| 2026-05-08 06:48 | 50.27334 | 7.10770 | 23865 ft | 454 kts | 73° |
| 2026-05-08 06:48 | 50.28244 | 7.15506 | 24191 ft | 456 kts | 73° |
| 2026-05-08 06:49 | 50.29165 | 7.20267 | 24522 ft | 458 kts | 73° |
| 2026-05-08 06:49 | 50.30091 | 7.25043 | 24856 ft | 460 kts | 73° |
| 2026-05-08 06:49 | 50.31022 | 7.29843 | 25177 ft | 462 kts | 73° |
| 2026-05-08 06:49 | 50.31955 | 7.34664 | 25485 ft | 465 kts | 73° |
| 2026-05-08 06:50 | 50.32892 | 7.39514 | 25791 ft | 467 kts | 73° |
| 2026-05-08 06:50 | 50.33817 | 7.44318 | 26087 ft | 469 kts | 73° |
| 2026-05-08 06:50 | 50.34758 | 7.49219 | 26389 ft | 471 kts | 73° |
| 2026-05-08 06:50 | 50.35701 | 7.54142 | 26687 ft | 473 kts | 73° |
| 2026-05-08 06:51 | 50.36644 | 7.59083 | 26976 ft | 475 kts | 73° |
| 2026-05-08 06:51 | 50.37591 | 7.64053 | 27245 ft | 477 kts | 73° |
| 2026-05-08 06:51 | 50.38538 | 7.69042 | 27523 ft | 479 kts | 73° |
| 2026-05-08 06:51 | 50.39486 | 7.74047 | 27794 ft | 481 kts | 73° |
| 2026-05-08 06:52 | 50.40426 | 7.79021 | 28053 ft | 483 kts | 73° |
| 2026-05-08 06:52 | 50.41376 | 7.84067 | 28352 ft | 483 kts | 73° |
| 2026-05-08 06:52 | 50.42327 | 7.89128 | 28732 ft | 482 kts | 73° |
| 2026-05-08 06:52 | 50.43270 | 7.94158 | 29151 ft | 481 kts | 73° |
| 2026-05-08 06:53 | 50.44209 | 7.99185 | 29532 ft | 480 kts | 73° |
| 2026-05-08 06:53 | 50.45144 | 8.04199 | 29877 ft | 480 kts | 73° |
| 2026-05-08 06:53 | 50.46078 | 8.09226 | 30215 ft | 479 kts | 73° |
| 2026-05-08 06:53 | 50.47009 | 8.14247 | 30528 ft | 479 kts | 73° |
| 2026-05-08 06:54 | 50.47924 | 8.19199 | 30829 ft | 478 kts | 73° |
| 2026-05-08 06:54 | 50.48850 | 8.24219 | 31092 ft | 479 kts | 73° |
| 2026-05-08 06:54 | 50.49771 | 8.29230 | 31370 ft | 479 kts | 73° |
| 2026-05-08 06:54 | 50.50694 | 8.34261 | 31670 ft | 478 kts | 73° |
| 2026-05-08 06:55 | 50.51610 | 8.39270 | 31954 ft | 478 kts | 73° |
| 2026-05-08 06:55 | 50.52525 | 8.44289 | 32238 ft | 478 kts | 73° |
| 2026-05-08 06:55 | 50.53441 | 8.49321 | 32519 ft | 478 kts | 73° |
| 2026-05-08 06:55 | 50.54349 | 8.54329 | 32828 ft | 477 kts | 73° |
| 2026-05-08 06:56 | 50.55244 | 8.59277 | 33099 ft | 477 kts | 74° |
| 2026-05-08 06:56 | 50.56150 | 8.64302 | 33126 ft | 480 kts | 74° |
| 2026-05-08 06:56 | 50.57964 | 8.74397 | 33129 ft | 477 kts | 74° |
| 2026-05-08 06:57 | 50.59752 | 8.84413 | 33130 ft | 474 kts | 74° |
| 2026-05-08 06:57 | 50.61514 | 8.94329 | 33135 ft | 472 kts | 74° |
| 2026-05-08 06:58 | 50.63274 | 9.04291 | 33136 ft | 472 kts | 74° |
| 2026-05-08 06:58 | 50.65024 | 9.14253 | 33135 ft | 472 kts | 74° |
| 2026-05-08 06:59 | 50.66766 | 9.24226 | 33134 ft | 473 kts | 74° |
| 2026-05-08 06:59 | 50.68508 | 9.34254 | 33132 ft | 475 kts | 74° |
| 2026-05-08 07:00 | 50.70234 | 9.44247 | 33129 ft | 476 kts | 74° |
| 2026-05-08 07:00 | 50.71969 | 9.54345 | 33119 ft | 478 kts | 74° |
| 2026-05-08 07:01 | 50.73753 | 9.64464 | 33135 ft | 478 kts | 72° |
| 2026-05-08 07:01 | 50.75808 | 9.74382 | 33139 ft | 479 kts | 70° |
| 2026-05-08 07:02 | 50.77914 | 9.84353 | 33132 ft | 479 kts | 71° |
| 2026-05-08 07:02 | 50.79972 | 9.94362 | 33130 ft | 478 kts | 71° |
| 2026-05-08 07:03 | 50.81995 | 10.04375 | 33132 ft | 477 kts | 71° |
| 2026-05-08 07:03 | 50.83989 | 10.14306 | 33132 ft | 476 kts | 71° |
| 2026-05-08 07:04 | 50.85985 | 10.24288 | 33126 ft | 475 kts | 71° |
| 2026-05-08 07:04 | 50.87972 | 10.34267 | 33129 ft | 475 kts | 72° |
| 2026-05-08 07:05 | 50.89977 | 10.44210 | 33126 ft | 474 kts | 68° |
| 2026-05-08 07:05 | 50.92609 | 10.53679 | 33141 ft | 472 kts | 63° |
| 2026-05-08 07:06 | 50.95448 | 10.63063 | 33147 ft | 472 kts | 63° |
| 2026-05-08 07:06 | 50.98262 | 10.72491 | 33150 ft | 472 kts | 64° |
| 2026-05-08 07:07 | 51.01024 | 10.81947 | 33158 ft | 473 kts | 64° |
| 2026-05-08 07:07 | 51.03750 | 10.91386 | 33155 ft | 473 kts | 64° |
| 2026-05-08 07:08 | 51.06483 | 11.00900 | 33156 ft | 474 kts | 64° |
| 2026-05-08 07:08 | 51.09217 | 11.10447 | 33153 ft | 474 kts | 64° |
| 2026-05-08 07:09 | 51.11941 | 11.19996 | 33152 ft | 474 kts | 64° |
| 2026-05-08 07:09 | 51.14641 | 11.29496 | 33152 ft | 475 kts | 64° |
| 2026-05-08 07:10 | 51.17358 | 11.39092 | 33149 ft | 475 kts | 64° |
| 2026-05-08 07:10 | 51.20063 | 11.48689 | 33148 ft | 474 kts | 64° |
| 2026-05-08 07:11 | 51.22761 | 11.58297 | 33154 ft | 474 kts | 65° |
| 2026-05-08 07:11 | 51.25425 | 11.67825 | 33148 ft | 474 kts | 65° |
| 2026-05-08 07:12 | 51.28099 | 11.77425 | 33150 ft | 473 kts | 65° |
| 2026-05-08 07:12 | 51.30770 | 11.87057 | 33149 ft | 473 kts | 65° |
| 2026-05-08 07:13 | 51.33425 | 11.96670 | 33159 ft | 472 kts | 65° |
| 2026-05-08 07:13 | 51.36051 | 12.06216 | 33157 ft | 472 kts | 65° |
| 2026-05-08 07:14 | 51.38684 | 12.15828 | 33150 ft | 472 kts | 65° |
| 2026-05-08 07:14 | 51.41312 | 12.25461 | 33160 ft | 471 kts | 65° |
| 2026-05-08 07:15 | 51.43925 | 12.35078 | 33165 ft | 471 kts | 65° |
| 2026-05-08 07:15 | 51.46517 | 12.44657 | 33163 ft | 471 kts | 65° |
| 2026-05-08 07:16 | 51.49116 | 12.54305 | 33156 ft | 471 kts | 65° |
| 2026-05-08 07:16 | 51.51704 | 12.63950 | 33165 ft | 470 kts | 66° |
| 2026-05-08 07:17 | 51.54284 | 12.73609 | 33164 ft | 471 kts | 66° |
| 2026-05-08 07:17 | 51.56858 | 12.83284 | 33159 ft | 470 kts | 66° |
| 2026-05-08 07:18 | 51.59403 | 12.92889 | 33163 ft | 470 kts | 66° |
| 2026-05-08 07:18 | 51.61952 | 13.02551 | 33159 ft | 469 kts | 66° |
| 2026-05-08 07:19 | 51.64494 | 13.12228 | 33161 ft | 469 kts | 66° |
| 2026-05-08 07:19 | 51.67028 | 13.21913 | 33162 ft | 469 kts | 66° |
| 2026-05-08 07:20 | 51.69537 | 13.31548 | 33159 ft | 469 kts | 66° |
| 2026-05-08 07:20 | 51.72052 | 13.41243 | 33158 ft | 469 kts | 66° |
| 2026-05-08 07:21 | 51.74560 | 13.50953 | 33158 ft | 469 kts | 66° |
| 2026-05-08 07:21 | 51.77060 | 13.60675 | 33156 ft | 469 kts | 66° |
| 2026-05-08 07:22 | 51.79534 | 13.70340 | 33153 ft | 469 kts | 66° |
| 2026-05-08 07:22 | 51.82018 | 13.80083 | 33152 ft | 469 kts | 66° |
| 2026-05-08 07:23 | 51.84495 | 13.89842 | 33158 ft | 469 kts | 66° |
| 2026-05-08 07:23 | 51.86946 | 13.99539 | 33158 ft | 469 kts | 66° |
| 2026-05-08 07:24 | 51.89410 | 14.09334 | 33160 ft | 469 kts | 66° |
| 2026-05-08 07:24 | 51.91865 | 14.19131 | 33162 ft | 470 kts | 66° |
| 2026-05-08 07:25 | 51.94314 | 14.28950 | 33162 ft | 470 kts | 66° |
| 2026-05-08 07:26 | 51.97953 | 14.43621 | 33162 ft | 470 kts | 66° |
| 2026-05-08 07:26 | 52.00381 | 14.53466 | 33161 ft | 470 kts | 67° |
| 2026-05-08 07:27 | 52.02800 | 14.63316 | 33171 ft | 470 kts | 67° |
| 2026-05-08 07:27 | 52.05184 | 14.73124 | 33163 ft | 470 kts | 69° |
| 2026-05-08 07:28 | 52.06533 | 14.83512 | 33179 ft | 471 kts | 82° |
| 2026-05-08 07:28 | 52.07238 | 14.94111 | 33170 ft | 471 kts | 83° |
| 2026-05-08 07:29 | 52.07929 | 15.04702 | 33161 ft | 471 kts | 83° |
| 2026-05-08 07:29 | 52.08649 | 15.15207 | 33166 ft | 471 kts | 83° |
| 2026-05-08 07:30 | 52.09387 | 15.25783 | 33164 ft | 470 kts | 83° |
| 2026-05-08 07:30 | 52.10120 | 15.36357 | 33164 ft | 470 kts | 83° |
| 2026-05-08 07:31 | 52.10841 | 15.46923 | 33159 ft | 470 kts | 83° |
| 2026-05-08 07:31 | 52.11547 | 15.57427 | 33164 ft | 470 kts | 83° |
| 2026-05-08 07:32 | 52.12248 | 15.68004 | 33156 ft | 470 kts | 83° |
| 2026-05-08 07:32 | 52.12939 | 15.78590 | 33156 ft | 471 kts | 83° |
| 2026-05-08 07:33 | 52.13622 | 15.89189 | 33159 ft | 471 kts | 83° |
| 2026-05-08 07:33 | 52.14366 | 15.99691 | 33157 ft | 471 kts | 82° |
| 2026-05-08 07:34 | 52.15202 | 16.10289 | 33162 ft | 471 kts | 82° |
| 2026-05-08 07:34 | 52.16028 | 16.20872 | 33173 ft | 471 kts | 82° |
| 2026-05-08 07:35 | 52.16829 | 16.31473 | 33176 ft | 472 kts | 82° |
| 2026-05-08 07:35 | 52.17609 | 16.42015 | 33172 ft | 472 kts | 82° |
| 2026-05-08 07:36 | 52.18383 | 16.52631 | 33170 ft | 472 kts | 83° |
| 2026-05-08 07:36 | 52.19148 | 16.63251 | 33172 ft | 472 kts | 83° |
| 2026-05-08 07:37 | 52.19904 | 16.73876 | 33165 ft | 472 kts | 83° |
| 2026-05-08 07:37 | 52.20646 | 16.84430 | 33168 ft | 472 kts | 83° |
| 2026-05-08 07:38 | 52.21383 | 16.95063 | 33158 ft | 472 kts | 83° |
| 2026-05-08 07:38 | 52.22110 | 17.05696 | 33160 ft | 472 kts | 83° |
| 2026-05-08 07:39 | 52.22828 | 17.16324 | 33162 ft | 472 kts | 83° |
| 2026-05-08 07:39 | 52.23531 | 17.26894 | 33175 ft | 471 kts | 83° |
| 2026-05-08 07:40 | 52.24228 | 17.37512 | 33160 ft | 471 kts | 84° |
| 2026-05-08 07:40 | 52.24917 | 17.48150 | 33160 ft | 471 kts | 84° |
| 2026-05-08 07:41 | 52.25596 | 17.58784 | 33158 ft | 471 kts | 84° |
| 2026-05-08 07:41 | 52.26153 | 17.67631 | 33159 ft | 471 kts | 84° |
| 2026-05-08 07:42 | 52.26920 | 17.79989 | 33161 ft | 471 kts | 85° |
| 2026-05-08 07:42 | 52.27570 | 17.90624 | 33155 ft | 471 kts | 85° |
| 2026-05-08 07:43 | 52.28103 | 17.99476 | 33153 ft | 471 kts | 85° |
| 2026-05-08 07:43 | 52.28735 | 18.10121 | 33150 ft | 471 kts | 85° |
| 2026-05-08 07:44 | 52.29458 | 18.22496 | 33149 ft | 471 kts | 86° |
| 2026-05-08 07:44 | 52.30071 | 18.33167 | 33143 ft | 471 kts | 86° |
| 2026-05-08 07:45 | 52.30572 | 18.42028 | 33144 ft | 471 kts | 86° |
| 2026-05-08 07:45 | 52.31168 | 18.52733 | 32531 ft | 478 kts | 86° |
| 2026-05-08 07:45 | 52.31562 | 18.59881 | 31660 ft | 475 kts | 87° |
| 2026-05-08 07:46 | 52.31855 | 18.65254 | 30941 ft | 475 kts | 87° |
| 2026-05-08 07:46 | 52.32051 | 18.68886 | 30446 ft | 475 kts | 87° |
| 2026-05-08 07:46 | 52.32337 | 18.74206 | 29602 ft | 476 kts | 88° |
| 2026-05-08 07:46 | 52.32622 | 18.79573 | 29028 ft | 470 kts | 88° |
| 2026-05-08 07:47 | 52.32902 | 18.84856 | 28426 ft | 465 kts | 88° |
| 2026-05-08 07:47 | 52.33176 | 18.90080 | 27873 ft | 459 kts | 88° |
| 2026-05-08 07:47 | 52.33446 | 18.95258 | 27325 ft | 453 kts | 88° |
| 2026-05-08 07:47 | 52.33709 | 19.00370 | 26767 ft | 449 kts | 88° |
| 2026-05-08 07:48 | 52.33966 | 19.05425 | 26222 ft | 444 kts | 89° |
| 2026-05-08 07:48 | 52.34220 | 19.10440 | 25682 ft | 440 kts | 89° |
| 2026-05-08 07:48 | 52.34465 | 19.15337 | 25160 ft | 437 kts | 89° |
| 2026-05-08 07:48 | 52.34710 | 19.20270 | 24632 ft | 433 kts | 89° |
| 2026-05-08 07:49 | 52.34950 | 19.25152 | 24114 ft | 430 kts | 89° |
| 2026-05-08 07:49 | 52.35187 | 19.30013 | 23570 ft | 427 kts | 89° |
| 2026-05-08 07:49 | 52.35421 | 19.34839 | 22982 ft | 424 kts | 89° |
| 2026-05-08 07:49 | 52.35651 | 19.39631 | 22426 ft | 420 kts | 89° |
| 2026-05-08 07:50 | 52.35876 | 19.44368 | 21894 ft | 417 kts | 89° |
| 2026-05-08 07:50 | 52.36099 | 19.49080 | 21397 ft | 413 kts | 89° |
| 2026-05-08 07:50 | 52.36317 | 19.53744 | 20859 ft | 410 kts | 88° |
| 2026-05-08 07:50 | 52.36529 | 19.58311 | 20353 ft | 407 kts | 88° |
| 2026-05-08 07:51 | 52.36740 | 19.62906 | 19846 ft | 404 kts | 88° |
| 2026-05-08 07:51 | 52.36949 | 19.67470 | 19450 ft | 399 kts | 88° |
| 2026-05-08 07:51 | 52.37152 | 19.71914 | 19304 ft | 387 kts | 88° |
| 2026-05-08 07:51 | 52.37347 | 19.76251 | 19135 ft | 377 kts | 88° |
| 2026-05-08 07:52 | 52.37508 | 19.80478 | 18891 ft | 370 kts | 90° |
| 2026-05-08 07:52 | 52.37599 | 19.84656 | 18627 ft | 366 kts | 90° |
| 2026-05-08 07:52 | 52.37663 | 19.88788 | 18352 ft | 362 kts | 90° |
| 2026-05-08 07:52 | 52.37722 | 19.92862 | 18069 ft | 364 kts | 90° |
| 2026-05-08 07:53 | 52.37784 | 19.97023 | 17802 ft | 367 kts | 90° |
| 2026-05-08 07:53 | 52.37850 | 20.01197 | 17499 ft | 367 kts | 90° |
| 2026-05-08 07:53 | 52.37918 | 20.05350 | 17229 ft | 364 kts | 90° |
| 2026-05-08 07:53 | 52.37987 | 20.09483 | 16944 ft | 362 kts | 90° |
| 2026-05-08 07:54 | 52.38055 | 20.13599 | 16698 ft | 361 kts | 90° |
| 2026-05-08 07:54 | 52.38122 | 20.17698 | 16422 ft | 360 kts | 90° |
| 2026-05-08 07:54 | 52.38188 | 20.21787 | 16157 ft | 359 kts | 90° |
| 2026-05-08 07:54 | 52.38253 | 20.25863 | 15896 ft | 358 kts | 90° |
| 2026-05-08 07:55 | 52.38315 | 20.29871 | 15640 ft | 357 kts | 90° |
| 2026-05-08 07:55 | 52.38376 | 20.33926 | 15377 ft | 356 kts | 90° |
| 2026-05-08 07:55 | 52.38436 | 20.37971 | 15118 ft | 355 kts | 90° |
| 2026-05-08 07:55 | 52.38494 | 20.42009 | 14862 ft | 354 kts | 90° |
| 2026-05-08 07:56 | 52.38551 | 20.46019 | 14602 ft | 352 kts | 90° |
| 2026-05-08 07:56 | 52.38606 | 20.50018 | 14345 ft | 351 kts | 90° |
| 2026-05-08 07:56 | 52.38659 | 20.53987 | 14089 ft | 349 kts | 90° |
| 2026-05-08 07:56 | 52.38712 | 20.57916 | 13823 ft | 348 kts | 90° |
| 2026-05-08 07:57 | 52.38763 | 20.61873 | 13544 ft | 346 kts | 90° |
| 2026-05-08 07:57 | 52.38806 | 20.65794 | 13273 ft | 343 kts | 91° |
| 2026-05-08 07:57 | 52.38507 | 20.69624 | 12994 ft | 338 kts | 105° |
| 2026-05-08 07:57 | 52.37696 | 20.73215 | 12584 ft | 335 kts | 118° |
| 2026-05-08 07:58 | 52.36553 | 20.76519 | 12166 ft | 334 kts | 121° |
| 2026-05-08 07:58 | 52.35368 | 20.79787 | 11782 ft | 332 kts | 122° |
| 2026-05-08 07:58 | 52.34208 | 20.82982 | 11407 ft | 331 kts | 122° |
| 2026-05-08 07:58 | 52.33045 | 20.86211 | 11099 ft | 327 kts | 121° |
| 2026-05-08 07:59 | 52.31904 | 20.89404 | 10802 ft | 323 kts | 121° |
| 2026-05-08 07:59 | 52.30784 | 20.92554 | 10542 ft | 319 kts | 121° |
| 2026-05-08 07:59 | 52.29675 | 20.95676 | 10293 ft | 316 kts | 121° |
| 2026-05-08 07:59 | 52.28577 | 20.98762 | 10033 ft | 312 kts | 121° |
| 2026-05-08 08:00 | 52.27475 | 21.01727 | 10033 ft | 299 kts | 129° |
| 2026-05-08 08:00 | 52.25998 | 21.03904 | 9996 ft | 285 kts | 150° |
| 2026-05-08 08:00 | 52.24299 | 21.05418 | 9917 ft | 276 kts | 154° |
| 2026-05-08 08:00 | 52.22599 | 21.06841 | 9651 ft | 274 kts | 154° |
| 2026-05-08 08:01 | 52.20905 | 21.08267 | 9365 ft | 274 kts | 154° |
| 2026-05-08 08:01 | 52.19220 | 21.09702 | 9112 ft | 272 kts | 154° |
| 2026-05-08 08:01 | 52.17563 | 21.11122 | 8974 ft | 266 kts | 153° |
| 2026-05-08 08:01 | 52.15953 | 21.12506 | 8899 ft | 258 kts | 153° |
| 2026-05-08 08:02 | 52.14385 | 21.13862 | 8775 ft | 252 kts | 153° |
| 2026-05-08 08:02 | 52.12877 | 21.15182 | 8540 ft | 247 kts | 153° |
| 2026-05-08 08:02 | 52.11359 | 21.16512 | 8131 ft | 249 kts | 153° |
| 2026-05-08 08:02 | 52.09838 | 21.17844 | 7743 ft | 248 kts | 153° |
| 2026-05-08 08:03 | 52.08325 | 21.19168 | 7390 ft | 247 kts | 153° |
| 2026-05-08 08:03 | 52.06810 | 21.20493 | 7044 ft | 246 kts | 153° |
| 2026-05-08 08:03 | 52.05313 | 21.21801 | 6811 ft | 244 kts | 153° |
| 2026-05-08 08:03 | 52.03810 | 21.23112 | 6531 ft | 245 kts | 154° |
| 2026-05-08 08:04 | 52.02324 | 21.24406 | 6321 ft | 245 kts | 153° |
| 2026-05-08 08:04 | 52.00826 | 21.25710 | 6096 ft | 245 kts | 153° |
| 2026-05-08 08:04 | 51.99325 | 21.27005 | 5874 ft | 244 kts | 153° |
| 2026-05-08 08:04 | 51.97826 | 21.28293 | 5686 ft | 243 kts | 155° |
| 2026-05-08 08:05 | 51.96214 | 21.28960 | 5464 ft | 239 kts | 186° |
| 2026-05-08 08:05 | 51.94673 | 21.28167 | 5268 ft | 232 kts | 217° |
| 2026-05-08 08:05 | 51.93566 | 21.26344 | 5103 ft | 227 kts | 238° |
| 2026-05-08 08:05 | 51.92778 | 21.24142 | 4941 ft | 227 kts | 243° |
| 2026-05-08 08:06 | 51.92183 | 21.21779 | 4719 ft | 228 kts | 264° |
| 2026-05-08 08:06 | 51.92342 | 21.19260 | 4547 ft | 226 kts | 292° |
| 2026-05-08 08:06 | 51.93211 | 21.17211 | 4356 ft | 226 kts | 319° |
| 2026-05-08 08:06 | 51.94522 | 21.15812 | 4193 ft | 226 kts | 330° |
| 2026-05-08 08:07 | 51.95892 | 21.14616 | 3995 ft | 220 kts | 331° |
| 2026-05-08 08:07 | 51.97218 | 21.13488 | 3813 ft | 213 kts | 332° |
| 2026-05-08 08:07 | 51.98524 | 21.12385 | 3647 ft | 210 kts | 332° |
| 2026-05-08 08:07 | 51.99823 | 21.11274 | 3484 ft | 212 kts | 332° |
| 2026-05-08 08:08 | 52.01130 | 21.10148 | 3313 ft | 213 kts | 332° |
| 2026-05-08 08:08 | 52.02428 | 21.09028 | 3153 ft | 214 kts | 332° |
| 2026-05-08 08:08 | 52.03707 | 21.07930 | 3026 ft | 202 kts | 333° |
| 2026-05-08 08:08 | 52.04933 | 21.06910 | 2759 ft | 190 kts | 333° |
| 2026-05-08 08:09 | 52.06056 | 21.05936 | 2522 ft | 177 kts | 333° |
| 2026-05-08 08:09 | 52.07098 | 21.05025 | 2283 ft | 164 kts | 332° |
| 2026-05-08 08:09 | 52.08068 | 21.04170 | 2111 ft | 154 kts | 333° |
| 2026-05-08 08:09 | 52.08985 | 21.03360 | 1894 ft | 149 kts | 333° |
| 2026-05-08 08:10 | 52.09892 | 21.02571 | 1665 ft | 146 kts | 333° |
| 2026-05-08 08:10 | 52.10777 | 21.01794 | 1468 ft | 144 kts | 332° |
| 2026-05-08 08:10 | 52.11654 | 21.01026 | 1258 ft | 144 kts | 332° |
| 2026-05-08 08:10 | 52.12528 | 21.00263 | 1043 ft | 142 kts | 332° |
| 2026-05-08 08:11 | 52.13391 | 20.99503 | 831 ft | 141 kts | 331° |
| 2026-05-08 08:11 | 52.14249 | 20.98745 | 656 ft | 141 kts | 331° |
| 2026-05-08 08:11 | 52.15115 | 20.97992 | 467 ft | 142 kts | 331° |
| 2026-05-08 08:11 | 52.15968 | 20.97241 | 357 ft | 135 kts | 332° |
| 2026-05-08 08:12 | 52.16707 | 20.96596 | 337 ft | 104 kts | 332° |
| 2026-05-08 08:12 | 52.17207 | 20.96159 | 332 ft | 61 kts | 332° |
| 2026-05-08 08:12 | 52.17456 | 20.95994 | 338 ft | 20 kts | 22° |
| 2026-05-08 08:12 | 52.17532 | 20.96053 | 338 ft | 0 kts | 25° |
| 2026-05-08 08:13 | 52.17533 | 20.96054 | 338 ft | 1 kts | 25° |
| 2026-05-08 08:13 | 52.17552 | 20.96068 | 337 ft | 5 kts | 25° |
| 2026-05-08 08:13 | 52.17580 | 20.96130 | 337 ft | 9 kts | 70° |
| 2026-05-08 08:14 | 52.17562 | 20.96241 | 334 ft | 13 kts | 136° |
| 2026-05-08 08:14 | 52.17475 | 20.96323 | 337 ft | 16 kts | 154° |
| 2026-05-08 08:14 | 52.17460 | 20.96478 | 335 ft | 17 kts | 62° |
| 2026-05-08 08:14 | 52.17535 | 20.96643 | 338 ft | 19 kts | 59° |
| 2026-05-08 08:15 | 52.17611 | 20.96845 | 336 ft | 22 kts | 56° |
| 2026-05-08 08:15 | 52.17581 | 20.96982 | 338 ft | 12 kts | 151° |
| 2026-05-08 08:15 | 52.17496 | 20.97059 | 336 ft | 16 kts | 151° |
| 2026-05-08 08:15 | 52.17388 | 20.97152 | 338 ft | 19 kts | 152° |
| 2026-05-08 08:16 | 52.17339 | 20.97173 | 335 ft | 5 kts | 220° |
| 2026-05-08 08:16 | 52.17318 | 20.97116 | 335 ft | 1 kts | 242° |
| 2026-05-08 08:16 | 52.17316 | 20.97109 | 335 ft | 0 kts | 242° |